Time;durP1;ratioP1;P1;durP2;ratioP2;P2;SDS_P1;SDS_P2;PMS_P1;PMS_P2;Temp;Humidity;BMP_temperature;BMP_pressure;BME280_temperature;BME280_humidity;BME280_pressure;Samples;Min_cycle;Max_cycle;Signal;HPM_P1;HPM_P2
2023/03/03 00:01:31;;;;;;;54.70;28.17;;;0.50;99.90;;;0.38;76.37;100625.75;6276041;22;20614;-69
2023/03/03 00:04:01;;;;;;;54.73;29.77;;;0.50;99.90;;;0.35;76.30;100629.00;6276245;22;20204;-72
2023/03/03 00:06:30;;;;;;;51.33;29.20;;;0.50;99.90;;;0.35;76.54;100618.88;6275214;22;20161;-70
2023/03/03 00:08:59;;;;;;;51.83;28.93;;;0.40;99.90;;;0.32;76.59;100617.91;6276067;22;20231;-72
2023/03/03 00:11:28;;;;;;;50.17;28.53;;;0.40;99.90;;;0.32;76.59;100612.81;6275321;22;20168;-72
2023/03/03 00:13:57;;;;;;;56.57;30.80;;;0.50;99.90;;;0.29;76.64;100608.50;6274865;22;20169;-72
2023/03/03 00:16:31;;;;;;;52.10;29.77;;;0.40;99.90;;;0.29;76.56;100608.50;6276422;22;20626;-72
2023/03/03 00:19:02;;;;;;;53.17;28.20;;;0.40;99.90;;;0.27;76.95;100620.25;6275355;22;20196;-72
2023/03/03 00:21:33;;;;;;;61.83;30.27;;;0.40;99.90;;;0.26;76.81;100618.53;6276062;22;20484;-72
2023/03/03 00:24:22;;;;;;;56.13;29.67;;;0.40;99.90;;;0.24;76.62;100610.84;6273984;22;20173;-72
2023/03/03 00:26:54;;;;;;;53.83;28.33;;;0.40;99.90;;;0.23;76.85;100613.34;6274447;22;20560;-74
2023/03/03 00:29:46;;;;;;;53.00;28.73;;;0.40;99.90;;;0.20;76.91;100603.09;6275454;22;20189;-71
2023/03/03 00:32:39;;;;;;;51.80;28.57;;;0.30;99.90;;;0.17;76.85;100597.88;6274071;22;20259;-71
2023/03/03 00:35:25;;;;;;;53.73;29.70;;;0.30;99.90;;;0.15;77.09;100596.97;6274641;22;20610;-71
2023/03/03 00:37:58;;;;;;;52.73;28.93;;;0.30;99.90;;;0.11;77.03;100590.94;6244712;23;20646;-72
2023/03/03 00:40:36;;;;;;;51.43;28.87;;;0.30;99.90;;;0.10;77.09;100584.09;6243696;22;20208;-71
2023/03/03 00:43:19;;;;;;;54.57;29.37;;;0.20;99.90;;;0.08;77.05;100579.81;6243718;23;20177;-71
2023/03/03 00:45:50;;;;;;;58.57;28.83;;;0.20;99.90;;;0.07;77.22;100578.06;6244449;23;20168;-72
2023/03/03 00:48:27;;;;;;;53.23;29.27;;;0.20;99.90;;;0.04;77.54;100575.41;6243163;23;20165;-71
2023/03/03 00:51:00;;;;;;;52.97;30.10;;;0.20;99.90;;;0.02;77.69;100574.50;6244858;22;20173;-71
2023/03/03 00:53:30;;;;;;;50.80;26.63;;;0.20;99.90;;;0.03;77.25;100571.16;6244598;22;20169;-72
2023/03/03 00:55:59;;;;;;;56.17;29.33;;;0.20;99.90;;;0.03;77.63;100566.94;6243655;23;20166;-72
2023/03/03 00:58:29;;;;;;;50.70;27.90;;;0.10;99.90;;;0.02;77.53;100566.91;6243567;23;20627;-71
2023/03/03 01:01:00;;;;;;;52.53;29.70;;;0.20;99.90;;;0.02;77.67;100572.81;6244730;23;20161;-70
2023/03/03 01:03:29;;;;;;;52.00;29.10;;;0.20;99.90;;;-0.01;78.00;100562.56;6242732;23;20165;-73
2023/03/03 01:05:59;;;;;;;54.40;28.87;;;0.20;99.90;;;-0.01;77.81;100558.34;6245135;23;20166;-73
2023/03/03 01:08:28;;;;;;;55.97;27.07;;;0.20;99.90;;;-0.01;77.67;100554.97;6244890;22;20170;-72
2023/03/03 01:10:59;;;;;;;53.17;28.10;;;0.20;99.90;;;-0.02;77.88;100554.09;6243998;23;20166;-70
2023/03/03 01:13:33;;;;;;;47.23;26.67;;;0.10;99.90;;;-0.06;77.73;100552.25;6244722;22;20771;-71
2023/03/03 01:16:06;;;;;;;48.80;26.47;;;0.10;99.90;;;-0.05;77.72;100548.91;6243243;23;20538;-72
2023/03/03 01:18:36;;;;;;;51.63;26.00;;;0.10;99.90;;;-0.05;77.93;100540.44;6244730;22;20188;-72
2023/03/03 01:21:07;;;;;;;47.97;27.57;;;0.10;99.90;;;-0.05;78.02;100540.44;6243920;23;20593;-70
2023/03/03 01:23:36;;;;;;;49.33;25.97;;;0.10;99.90;;;-0.07;77.62;100529.41;6244287;22;20161;-70
2023/03/03 01:26:06;;;;;;;47.17;25.90;;;0.10;99.90;;;-0.07;78.10;100520.16;6244148;23;20170;-70
2023/03/03 01:28:35;;;;;;;53.20;26.80;;;0.10;99.90;;;-0.06;78.08;100519.34;6244219;22;20197;-68
2023/03/03 01:31:05;;;;;;;48.70;26.97;;;0.10;99.90;;;-0.07;78.02;100517.59;6242306;23;20173;-73
2023/03/03 01:33:35;;;;;;;47.67;26.50;;;0.10;99.90;;;-0.09;77.92;100509.06;6244675;23;20238;-71
2023/03/03 01:36:08;;;;;;;44.70;26.97;;;0.10;99.90;;;-0.08;78.08;100510.78;6251532;22;20243;-70
2023/03/03 01:38:37;;;;;;;47.40;27.60;;;0.10;99.90;;;-0.06;78.38;100515.94;6273086;22;20196;-70
2023/03/03 01:41:07;;;;;;;49.73;26.97;;;0.10;99.90;;;-0.08;78.31;100510.78;6274337;22;20671;-68
2023/03/03 01:43:43;;;;;;;46.87;26.00;;;0.10;99.90;;;-0.10;78.33;100506.50;6273985;22;20238;-71
2023/03/03 01:46:48;;;;;;;49.97;28.17;;;0.00;99.90;;;-0.13;78.21;100508.91;6273530;22;20235;-69
2023/03/03 01:49:21;;;;;;;43.20;25.00;;;0.00;99.90;;;-0.14;78.20;100499.59;6251283;22;20547;-69
2023/03/03 01:51:57;;;;;;;50.60;27.47;;;0.00;99.90;;;-0.15;78.24;100496.16;6274570;22;20169;-71
2023/03/03 01:54:30;;;;;;;48.00;26.20;;;0.00;99.90;;;-0.14;78.45;100500.44;6273780;22;20161;-70
2023/03/03 01:57:05;;;;;;;43.83;26.07;;;0.00;99.90;;;-0.16;78.50;100499.50;6275889;22;20165;-71
2023/03/03 01:59:37;;;;;;;44.70;26.60;;;0.00;99.90;;;-0.25;78.12;100481.44;6276113;22;20193;-74
2023/03/03 02:02:07;;;;;;;47.30;27.00;;;0.00;99.90;;;-0.16;78.41;100502.03;6276555;22;20218;-69
2023/03/03 02:04:36;;;;;;;47.70;26.93;;;0.00;99.90;;;-0.16;78.84;100506.25;6276717;22;20176;-72
2023/03/03 02:07:10;;;;;;;50.23;26.87;;;0.00;99.90;;;-0.17;78.59;100497.78;6276701;22;20248;-73
2023/03/03 02:09:55;;;;;;;44.80;25.83;;;-0.10;99.90;;;-0.15;78.72;100500.38;6275168;22;20223;-72
2023/03/03 02:12:34;;;;;;;48.03;27.40;;;-0.10;99.90;;;-0.16;78.92;100491.91;6275324;22;20176;-71
2023/03/03 02:15:18;;;;;;;47.13;27.70;;;0.00;99.90;;;-0.17;78.71;100490.19;6276284;22;20173;-72
2023/03/03 02:17:49;;;;;;;45.70;28.17;;;-0.10;99.90;;;-0.14;78.59;100497.06;6275856;22;20504;-71
2023/03/03 02:20:34;;;;;;;46.83;27.47;;;-0.10;99.90;;;-0.12;78.76;100501.34;6276466;22;20499;-72
2023/03/03 02:23:13;;;;;;;46.77;27.00;;;-0.10;99.90;;;-0.12;78.77;100497.97;6277267;22;20169;-71
2023/03/03 02:25:53;;;;;;;47.07;28.43;;;0.00;99.90;;;-0.11;78.84;100498.03;6276714;22;20252;-71
2023/03/03 02:28:24;;;;;;;48.23;28.23;;;0.00;99.90;;;-0.10;78.81;100499.75;6274309;22;20188;-70
2023/03/03 02:30:55;;;;;;;51.43;27.50;;;0.00;99.90;;;-0.08;78.51;100495.59;6277577;22;20157;-71
2023/03/03 02:33:24;;;;;;;47.47;27.70;;;0.00;99.90;;;-0.06;78.81;100496.53;6278630;22;20168;-72
2023/03/03 02:35:53;;;;;;;41.27;26.83;;;0.10;99.90;;;-0.03;78.70;100503.41;6278455;22;20211;-71
2023/03/03 02:38:27;;;;;;;55.47;28.43;;;0.10;99.90;;;-0.02;78.99;100490.78;6278789;22;20161;-70
2023/03/03 02:41:08;;;;;;;41.93;26.53;;;0.10;99.90;;;0.02;78.56;100506.09;6278819;22;20161;-73
2023/03/03 02:43:46;;;;;;;46.97;26.80;;;0.10;99.90;;;0.02;78.50;100495.97;6278499;22;20287;-73
2023/03/03 02:46:15;;;;;;;46.57;28.27;;;0.10;99.90;;;0.02;78.74;100491.75;6277813;22;20160;-71
2023/03/03 02:48:44;;;;;;;50.37;28.67;;;0.20;99.90;;;0.05;78.52;100496.09;6277192;22;20188;-72
2023/03/03 02:51:13;;;;;;;47.73;27.77;;;0.20;99.90;;;0.05;78.54;100491.88;6278329;22;20181;-72
2023/03/03 02:53:42;;;;;;;47.83;27.00;;;0.20;99.90;;;0.07;78.64;100492.78;6278997;22;20176;-71
2023/03/03 02:56:11;;;;;;;45.10;27.83;;;0.20;99.90;;;0.06;78.43;100493.59;6278430;22;20178;-71
2023/03/03 02:58:41;;;;;;;41.07;26.00;;;0.20;99.90;;;0.04;78.56;100484.19;6278623;22;20176;-70
2023/03/03 03:01:09;;;;;;;44.53;27.60;;;0.20;99.90;;;0.04;78.39;100485.09;6277122;22;20223;-71
2023/03/03 03:03:38;;;;;;;47.90;26.73;;;0.20;99.90;;;-0.02;78.03;100483.19;6278609;22;20235;-71
2023/03/03 03:06:07;;;;;;;47.90;26.53;;;0.10;99.90;;;-0.01;78.15;100487.44;6278589;22;20180;-72
2023/03/03 03:08:36;;;;;;;42.10;24.37;;;0.10;99.90;;;-0.03;78.39;100480.59;6279585;22;20176;-71
2023/03/03 03:11:05;;;;;;;42.90;24.47;;;0.10;99.90;;;-0.09;78.63;100478.69;6278173;22;20545;-72
2023/03/03 03:13:34;;;;;;;45.23;26.00;;;0.10;99.90;;;-0.07;78.15;100476.22;6279363;22;20177;-71
2023/03/03 03:16:06;;;;;;;47.80;25.40;;;0.00;99.90;;;-0.12;78.51;100478.56;6279675;22;20255;-72
2023/03/03 03:18:34;;;;;;;48.20;26.83;;;0.00;99.90;;;-0.14;78.06;100476.78;6278239;22;20214;-71
2023/03/03 03:21:11;;;;;;;44.70;26.13;;;0.00;99.90;;;-0.19;78.20;100473.19;6278524;22;20219;-71
2023/03/03 03:23:40;;;;;;;46.40;27.07;;;-0.10;99.90;;;-0.21;78.14;100480.75;6278217;22;20473;-71
2023/03/03 03:26:09;;;;;;;45.50;25.90;;;-0.10;99.90;;;-0.27;78.19;100475.44;6278958;22;20274;-72
2023/03/03 03:28:38;;;;;;;47.07;26.10;;;-0.10;99.90;;;-0.30;78.69;100467.72;6277537;22;20192;-72
2023/03/03 03:31:09;;;;;;;51.00;27.60;;;-0.20;99.90;;;-0.30;78.45;100477.84;6276309;22;20176;-72
2023/03/03 03:33:38;;;;;;;43.87;24.97;;;-0.20;99.90;;;-0.34;78.75;100476.00;6277289;22;20256;-71
2023/03/03 03:36:08;;;;;;;56.00;27.70;;;-0.20;99.90;;;-0.37;78.86;100473.34;6275749;22;20642;-71
2023/03/03 03:38:37;;;;;;;49.83;25.33;;;-0.20;99.90;;;-0.36;78.88;100475.09;6277968;22;20176;-72
2023/03/03 03:41:07;;;;;;;46.60;26.83;;;-0.20;99.90;;;-0.40;78.90;100475.78;6276848;22;20196;-70
2023/03/03 03:43:36;;;;;;;48.30;26.97;;;-0.30;99.90;;;-0.40;79.03;100480.84;6277767;22;20179;-71
2023/03/03 03:46:05;;;;;;;49.10;26.70;;;-0.30;99.90;;;-0.42;79.45;100488.38;6276166;22;20238;-70
2023/03/03 03:48:35;;;;;;;54.13;29.03;;;-0.30;99.90;;;-0.45;79.26;100478.13;6276779;22;20263;-70
2023/03/03 03:51:04;;;;;;;46.47;26.53;;;-0.30;99.90;;;-0.49;79.26;100469.53;6276413;22;20165;-70
2023/03/03 03:53:33;;;;;;;44.33;25.60;;;-0.30;99.90;;;-0.47;79.11;100471.28;6276811;22;20669;-72
2023/03/03 03:56:01;;;;;;;47.10;26.53;;;-0.40;99.90;;;-0.52;79.57;100466.88;6276571;22;20183;-71
2023/03/03 03:58:30;;;;;;;49.67;28.10;;;-0.40;99.90;;;-0.52;79.13;100459.28;6276726;22;20244;-71
2023/03/03 04:01:04;;;;;;;49.57;27.17;;;-0.40;99.90;;;-0.54;79.45;100452.44;6276939;22;20196;-70
2023/03/03 04:03:35;;;;;;;49.70;26.03;;;-0.40;99.90;;;-0.52;79.31;100460.94;6276851;22;20551;-70
2023/03/03 04:06:03;;;;;;;52.63;27.57;;;-0.40;99.90;;;-0.54;79.29;100460.91;6277238;22;20165;-71
2023/03/03 04:08:33;;;;;;;51.33;26.87;;;-0.40;99.90;;;-0.56;79.69;100454.91;6275388;22;20254;-70
2023/03/03 04:11:01;;;;;;;54.50;28.70;;;-0.40;99.90;;;-0.55;79.50;100455.78;6247466;22;20187;-72
2023/03/03 04:13:30;;;;;;;50.23;28.47;;;-0.40;99.90;;;-0.56;80.00;100454.91;6276817;22;20189;-71
2023/03/03 04:15:59;;;;;;;49.80;27.50;;;-0.40;99.90;;;-0.55;79.85;100459.19;6277425;22;20176;-71
2023/03/03 04:18:28;;;;;;;47.07;25.93;;;-0.40;99.90;;;-0.56;79.83;100459.97;6277412;22;20173;-72
2023/03/03 04:20:59;;;;;;;54.20;27.73;;;-0.40;99.90;;;-0.56;79.63;100454.91;6277459;22;20262;-71
2023/03/03 04:23:27;;;;;;;47.23;26.87;;;-0.40;99.90;;;-0.56;79.68;100449.84;6276653;22;20181;-72
2023/03/03 04:25:57;;;;;;;48.57;27.43;;;-0.40;99.90;;;-0.57;80.06;100453.19;6275188;22;20226;-71
2023/03/03 04:28:27;;;;;;;51.97;26.23;;;-0.40;99.90;;;-0.58;80.10;100432.91;6276475;22;20200;-70
2023/03/03 04:30:55;;;;;;;52.63;26.53;;;-0.40;99.90;;;-0.58;79.73;100436.28;6276194;22;20666;-71
2023/03/03 04:33:24;;;;;;;50.00;26.33;;;-0.40;99.90;;;-0.59;79.78;100434.56;6276425;22;20177;-72
2023/03/03 04:35:52;;;;;;;54.37;28.63;;;-0.40;99.90;;;-0.57;79.94;100427.88;6274498;22;20220;-74
2023/03/03 04:38:23;;;;;;;49.67;26.70;;;-0.40;99.90;;;-0.59;80.05;100431.13;6275629;22;20188;-73
2023/03/03 04:40:52;;;;;;;52.40;27.93;;;-0.40;99.90;;;-0.60;80.03;100434.50;6275926;22;20189;-71
2023/03/03 04:43:20;;;;;;;50.80;26.23;;;-0.50;99.90;;;-0.63;79.53;100442.81;6277216;22;20172;-72
2023/03/03 04:45:49;;;;;;;48.03;26.77;;;-0.50;99.90;;;-0.65;79.71;100438.50;6278235;22;20180;-72
2023/03/03 04:48:17;;;;;;;57.20;28.47;;;-0.50;99.90;;;-0.70;79.93;100435.81;6278917;22;20630;-72
2023/03/03 04:50:46;;;;;;;51.13;28.00;;;-0.60;99.90;;;-0.73;80.14;100428.09;6276665;22;20570;-71
2023/03/03 04:53:17;;;;;;;56.60;28.30;;;-0.60;99.90;;;-0.75;79.83;100424.63;6277269;22;20242;-69
2023/03/03 04:55:47;;;;;;;52.87;28.07;;;-0.70;99.90;;;-0.78;80.35;100424.50;6275924;22;20230;-71
2023/03/03 04:58:16;;;;;;;52.97;28.10;;;-0.60;99.90;;;-0.79;79.85;100417.72;6278109;22;20173;-70
2023/03/03 05:00:46;;;;;;;48.53;28.10;;;-0.60;99.90;;;-0.83;80.16;100418.41;6276656;22;20205;-71
2023/03/03 05:03:18;;;;;;;53.13;28.47;;;-0.70;99.90;;;-0.83;80.20;100415.88;6276490;22;20177;-71
2023/03/03 05:05:49;;;;;;;56.17;30.37;;;-0.60;99.90;;;-0.83;80.11;100418.41;6276769;22;20165;-71
2023/03/03 05:08:17;;;;;;;50.67;28.30;;;-0.70;99.90;;;-0.85;80.29;100417.47;6278155;22;20176;-71
2023/03/03 05:10:51;;;;;;;62.30;30.10;;;-0.70;99.90;;;-0.85;80.38;100409.88;6277276;22;20173;-73
2023/03/03 05:13:19;;;;;;;53.27;28.53;;;-0.70;99.90;;;-0.89;80.35;100406.34;6276963;22;20571;-70
2023/03/03 05:15:52;;;;;;;53.67;30.10;;;-0.70;99.90;;;-0.89;80.57;100411.41;6276238;22;20207;-72
2023/03/03 05:18:21;;;;;;;52.83;27.93;;;-0.70;99.90;;;-0.88;80.29;100412.31;6277234;22;20177;-71
2023/03/03 05:20:54;;;;;;;59.47;30.60;;;-0.70;99.90;;;-0.89;80.42;100418.13;6276763;22;20184;-70
2023/03/03 05:23:23;;;;;;;56.53;28.83;;;-0.70;99.90;;;-0.90;80.18;100419.81;6276771;22;20590;-72
2023/03/03 05:25:53;;;;;;;59.33;30.10;;;-0.80;99.90;;;-0.92;80.33;100412.94;6276758;22;20180;-72
2023/03/03 05:28:22;;;;;;;60.87;31.80;;;-0.70;99.90;;;-0.91;80.69;100419.75;6277791;22;20499;-74
2023/03/03 05:30:51;;;;;;;56.90;30.93;;;-0.70;99.90;;;-0.88;80.74;100404.72;6274350;22;20173;-72
2023/03/03 05:33:22;;;;;;;57.60;32.73;;;-0.70;99.90;;;-0.85;80.50;100407.34;6275874;22;20226;-71
2023/03/03 05:35:55;;;;;;;61.80;32.23;;;-0.70;99.90;;;-0.84;80.38;100412.47;6277829;22;20213;-72
2023/03/03 05:38:25;;;;;;;66.07;33.53;;;-0.60;99.90;;;-0.79;80.64;100410.13;6278338;22;20244;-70
2023/03/03 05:40:55;;;;;;;62.53;32.63;;;-0.60;99.90;;;-0.76;80.33;100401.00;6279676;22;20511;-70
2023/03/03 05:43:23;;;;;;;60.87;32.87;;;-0.60;99.90;;;-0.70;80.36;100404.56;6277217;22;20651;-72
2023/03/03 05:45:56;;;;;;;65.30;35.20;;;-0.50;99.90;;;-0.68;80.03;100408.88;6276721;22;20544;-71
2023/03/03 05:48:25;;;;;;;58.43;33.23;;;-0.40;99.90;;;-0.67;79.90;100408.06;6275228;22;20198;-72
2023/03/03 05:50:54;;;;;;;63.10;33.13;;;-0.50;99.90;;;-0.62;80.20;100413.34;6275000;22;20614;-71
2023/03/03 05:53:22;;;;;;;64.17;33.83;;;-0.50;99.90;;;-0.60;80.31;100410.03;6276638;22;20551;-72
2023/03/03 05:55:54;;;;;;;73.67;35.00;;;-0.40;99.90;;;-0.60;80.17;100407.50;6276535;22;20176;-71
2023/03/03 05:58:22;;;;;;;71.70;36.33;;;-0.40;99.90;;;-0.61;80.21;100403.25;6276998;22;20199;-71
2023/03/03 06:01:05;;;;;;;70.93;34.47;;;-0.30;99.90;;;-0.60;79.99;100407.50;6281878;22;20193;-77
2023/03/03 06:03:34;;;;;;;65.90;33.73;;;-0.40;99.90;;;-0.62;79.91;100404.06;6286088;22;20187;-74
2023/03/03 06:06:05;;;;;;;69.23;33.53;;;-0.40;99.90;;;-0.64;80.05;100394.69;6292446;22;20161;-74
2023/03/03 06:08:34;;;;;;;78.23;34.27;;;-0.40;99.90;;;-0.64;80.23;100400.59;6292448;22;20191;-74
2023/03/03 06:11:04;;;;;;;78.77;35.80;;;-0.40;99.90;;;-0.61;80.57;100400.72;6296104;22;20153;-75
2023/03/03 06:13:32;;;;;;;70.30;35.70;;;-0.30;99.90;;;-0.58;80.42;100400.84;6294580;22;20164;-72
2023/03/03 06:16:02;;;;;;;73.23;33.80;;;-0.30;99.90;;;-0.56;80.56;100400.91;6294599;22;20203;-74
2023/03/03 06:18:33;;;;;;;72.60;35.20;;;-0.30;99.90;;;-0.52;80.33;100411.19;6294923;22;20176;-74
2023/03/03 06:21:02;;;;;;;76.50;36.00;;;-0.30;99.90;;;-0.46;80.59;100420.72;6261262;22;20204;-73
2023/03/03 06:23:31;;;;;;;77.07;36.17;;;-0.20;99.90;;;-0.42;80.28;100416.63;6288671;22;20177;-76
2023/03/03 06:25:59;;;;;;;70.23;35.17;;;-0.20;99.90;;;-0.40;80.28;100415.03;6294708;22;20676;-69
2023/03/03 06:28:29;;;;;;;72.00;35.77;;;-0.10;99.90;;;-0.39;80.32;100417.59;6299617;22;20193;-71
2023/03/03 06:30:58;;;;;;;76.83;35.93;;;-0.20;99.90;;;-0.38;80.18;100408.34;6309033;22;20191;-75
2023/03/03 06:33:27;;;;;;;71.40;32.27;;;-0.10;99.90;;;-0.35;79.83;100418.59;6308274;22;20211;-81
2023/03/03 06:35:56;;;;;;;69.67;32.57;;;-0.10;99.90;;;-0.40;79.60;100409.97;6319904;22;20175;-76
2023/03/03 06:38:25;;;;;;;64.70;31.57;;;-0.20;99.90;;;-0.46;79.66;100412.25;6324740;22;20206;-76
2023/03/03 06:40:54;;;;;;;62.97;29.90;;;-0.30;99.90;;;-0.53;79.67;100411.16;6330476;22;20195;-76
2023/03/03 06:43:23;;;;;;;63.00;31.73;;;-0.30;99.90;;;-0.62;79.52;100411.66;6325156;22;20168;-74
2023/03/03 06:45:53;;;;;;;65.77;32.17;;;-0.40;99.90;;;-0.71;80.14;100411.28;6320133;22;20180;-72
2023/03/03 06:48:22;;;;;;;63.97;31.23;;;-0.50;99.90;;;-0.75;80.65;100417.88;6327506;22;20236;-71
2023/03/03 06:50:50;;;;;;;56.10;27.10;;;-0.50;99.90;;;-0.77;80.73;100423.72;6325727;22;20479;-73
2023/03/03 06:53:19;;;;;;;55.20;28.30;;;-0.50;99.90;;;-0.81;81.21;100411.72;6321883;22;20172;-74
2023/03/03 06:55:48;;;;;;;55.90;28.17;;;-0.60;99.90;;;-0.84;81.02;100416.69;6322436;22;20525;-77
2023/03/03 06:58:21;;;;;;;57.00;27.60;;;-0.60;99.90;;;-0.86;81.53;100414.06;6326252;22;20258;-74
2023/03/03 07:00:57;;;;;;;57.30;28.53;;;-0.60;99.90;;;-0.85;82.12;100415.78;6326754;22;20168;-77
2023/03/03 07:03:28;;;;;;;59.33;26.77;;;-0.60;99.90;;;-0.82;82.09;100425.19;6327157;22;20182;-76
2023/03/03 07:05:57;;;;;;;50.50;26.07;;;-0.50;99.90;;;-0.79;82.11;100418.56;6322755;22;20166;-74
2023/03/03 07:08:32;;;;;;;56.40;25.33;;;-0.50;99.90;;;-0.70;82.35;100427.31;6312911;22;20195;-75
2023/03/03 07:11:08;;;;;;;54.80;25.43;;;-0.40;99.90;;;-0.63;81.71;100412.44;6287451;22;20211;-74
2023/03/03 07:13:42;;;;;;;47.30;23.10;;;-0.40;99.90;;;-0.57;81.74;100411.84;6321084;22;20166;-73
2023/03/03 07:16:14;;;;;;;51.60;25.77;;;-0.30;99.90;;;-0.53;81.82;100418.75;6323996;22;20157;-75
2023/03/03 07:18:51;;;;;;;47.10;24.43;;;-0.30;99.90;;;-0.47;81.82;100408.00;6325183;22;20168;-75
2023/03/03 07:21:22;;;;;;;49.93;23.53;;;-0.20;99.90;;;-0.44;81.57;100411.53;6323338;22;20206;-73
2023/03/03 07:23:54;;;;;;;53.87;25.57;;;-0.20;99.90;;;-0.44;81.35;100403.94;6325577;22;20172;-74
2023/03/03 07:26:29;;;;;;;48.50;23.93;;;-0.20;99.90;;;-0.41;82.21;100393.03;6325243;22;20156;-74
2023/03/03 07:29:04;;;;;;;53.97;25.03;;;-0.20;99.90;;;-0.41;81.57;100387.97;6306420;22;20197;-74
2023/03/03 07:31:38;;;;;;;47.60;23.47;;;-0.20;99.90;;;-0.40;81.72;100399.84;6293764;22;20161;-73
2023/03/03 07:34:20;;;;;;;45.90;23.67;;;-0.10;99.90;;;-0.40;81.65;100404.91;6284471;22;20199;-73
2023/03/03 07:36:53;;;;;;;47.07;23.33;;;-0.10;99.90;;;-0.39;81.94;100406.63;6286316;22;20188;-71
2023/03/03 07:39:38;;;;;;;47.17;23.83;;;-0.10;99.90;;;-0.37;81.58;100415.13;6281718;22;20197;-73
2023/03/03 07:42:21;;;;;;;48.57;23.50;;;-0.10;99.90;;;-0.38;81.45;100411.72;6279943;22;20703;-74
2023/03/03 07:44:52;;;;;;;43.70;23.83;;;-0.10;99.90;;;-0.33;81.87;100417.84;6285121;22;20218;-75
2023/03/03 07:47:25;;;;;;;43.90;22.73;;;0.00;99.90;;;-0.29;81.96;100418.84;6256079;22;20251;-74
2023/03/03 07:49:57;;;;;;;48.97;23.47;;;-0.10;99.90;;;-0.28;81.91;100425.63;6276199;22;20164;-71
2023/03/03 07:52:31;;;;;;;47.90;23.23;;;0.00;99.90;;;-0.27;82.06;100423.13;6276290;22;20163;-73
2023/03/03 07:55:19;;;;;;;43.40;22.27;;;0.00;99.90;;;-0.24;81.84;100432.53;6274891;22;20226;-75
2023/03/03 07:57:52;;;;;;;48.33;23.87;;;0.00;99.90;;;-0.23;82.16;100416.50;6275358;22;20173;-75
2023/03/03 08:01:26;;;;;;;48.77;23.33;;;0.10;99.90;;;-0.18;82.00;100425.16;6275577;22;20165;-73
2023/03/03 08:03:58;;;;;;;47.53;22.87;;;0.10;99.90;;;-0.14;81.57;100429.53;6120161;22;20184;-73
2023/03/03 08:06:53;;;;;;;46.27;23.10;;;0.10;99.90;;;-0.13;81.38;100426.19;6276910;22;20196;-72
2023/03/03 08:09:44;;;;;;;46.40;23.00;;;0.10;99.90;;;-0.12;81.70;100414.38;6275234;22;20173;-69
2023/03/03 08:12:40;;;;;;;47.90;22.77;;;0.20;99.90;;;-0.08;81.89;100429.75;6275118;22;20165;-71
2023/03/03 08:15:22;;;;;;;40.67;20.73;;;0.20;99.90;;;-0.02;81.70;100435.03;6275213;22;20181;-72
2023/03/03 08:17:55;;;;;;;44.33;21.03;;;0.30;99.90;;;0.03;81.66;100427.63;6272685;22;20234;-70
2023/03/03 08:20:57;;;;;;;41.63;20.70;;;0.30;99.90;;;0.08;81.94;100435.41;6272763;22;20169;-72
2023/03/03 08:23:26;;;;;;;40.27;19.67;;;0.40;99.90;;;0.16;81.33;100455.13;6269490;22;20188;-72
2023/03/03 08:25:55;;;;;;;41.63;22.07;;;0.50;99.90;;;0.21;80.96;100446.03;6272934;22;20169;-70
2023/03/03 08:28:23;;;;;;;42.40;21.73;;;0.50;99.90;;;0.27;80.94;100445.41;6275049;22;20216;-74
2023/03/03 08:30:53;;;;;;;40.13;20.17;;;0.50;99.90;;;0.32;80.78;100445.56;6275238;22;20247;-72
2023/03/03 08:33:33;;;;;;;39.63;20.40;;;0.60;99.90;;;0.39;80.80;100455.97;6273960;22;20200;-72
2023/03/03 08:36:05;;;;;;;39.67;20.50;;;0.70;99.90;;;0.46;80.05;100459.59;6278310;22;20243;-77
2023/03/03 08:38:36;;;;;;;36.63;19.57;;;0.70;99.90;;;0.47;79.97;100457.09;6276895;22;20591;-75
2023/03/03 08:41:06;;;;;;;41.67;20.63;;;0.70;99.90;;;0.48;79.56;100466.44;6275146;22;20193;-76
2023/03/03 08:43:35;;;;;;;40.70;20.80;;;0.70;99.90;;;0.52;80.13;100472.50;6271801;22;20189;-79
2023/03/03 08:46:06;;;;;;;40.70;19.07;;;0.80;99.90;;;0.57;79.52;100475.19;6277328;22;20550;-77
2023/03/03 08:48:34;;;;;;;41.57;20.67;;;0.80;99.90;;;0.58;79.45;100469.28;6279898;22;20169;-76
2023/03/03 08:51:05;;;;;;;45.33;20.60;;;0.90;99.90;;;0.58;79.06;100470.16;6280937;22;20173;-76
2023/03/03 08:53:37;;;;;;;38.67;21.33;;;0.80;99.90;;;0.60;79.23;100467.69;6285001;22;20197;-75
2023/03/03 08:56:06;;;;;;;39.93;20.93;;;0.90;99.90;;;0.60;79.47;100476.16;6294546;22;20153;-78
2023/03/03 08:58:35;;;;;;;39.27;19.43;;;0.90;99.90;;;0.60;79.38;100477.84;6291831;22;20173;-73
2023/03/03 09:01:05;;;;;;;38.70;20.33;;;0.90;99.90;;;0.60;79.38;100465.16;6300205;22;20165;-78
2023/03/03 09:03:34;;;;;;;39.67;21.03;;;0.90;99.90;;;0.58;78.93;100471.84;6269191;22;20196;-75
2023/03/03 09:06:04;;;;;;;44.07;21.27;;;0.90;99.90;;;0.55;78.84;100461.56;6293746;22;20177;-76
2023/03/03 09:08:33;;;;;;;44.17;21.67;;;0.80;99.90;;;0.55;78.91;100469.19;6287122;22;20186;-77
2023/03/03 09:11:02;;;;;;;41.67;21.73;;;0.80;99.90;;;0.58;79.15;100469.28;6293233;22;20234;-74
2023/03/03 09:13:34;;;;;;;43.17;21.20;;;0.90;99.90;;;0.61;79.16;100462.66;6301256;22;20168;-73
2023/03/03 09:16:13;;;;;;;43.27;22.13;;;0.90;99.90;;;0.68;79.20;100461.22;6285470;22;20624;-77
2023/03/03 09:18:42;;;;;;;42.20;20.47;;;1.00;99.90;;;0.74;78.30;100461.44;6282437;22;20228;-80
2023/03/03 09:21:23;;;;;;;38.83;20.63;;;1.00;99.90;;;0.77;78.27;100453.03;6283419;22;20172;-74
2023/03/03 09:23:55;;;;;;;40.50;19.90;;;1.00;99.90;;;0.78;78.16;100442.97;6274344;22;20523;-72
2023/03/03 09:26:42;;;;;;;39.33;20.10;;;1.00;99.90;;;0.78;78.03;100444.66;6274895;22;20161;-73
2023/03/03 09:29:24;;;;;;;41.20;19.73;;;1.10;99.90;;;0.80;77.72;100441.34;6254125;22;20211;-76
2023/03/03 09:31:57;;;;;;;39.53;20.90;;;1.10;99.90;;;0.87;77.95;100427.19;6280779;22;20165;-74
2023/03/03 09:34:39;;;;;;;33.60;18.63;;;1.10;99.90;;;0.93;77.57;100430.78;6276580;22;20619;-75
2023/03/03 09:37:22;;;;;;;36.80;19.20;;;1.20;99.90;;;0.94;77.16;100432.50;6274004;22;20222;-76
2023/03/03 09:39:56;;;;;;;35.90;16.80;;;1.20;99.90;;;0.99;77.49;100434.34;6278676;22;20171;-76
2023/03/03 09:43:00;;;;;;;34.33;17.77;;;1.30;99.90;;;0.99;76.99;100430.13;6294632;22;20191;-74
2023/03/03 09:48:58;;;;;;;38.20;19.70;;;1.30;99.90;;;0.96;76.28;100430.91;6266744;22;20237;-75
2023/03/03 09:51:59;;;;;;;32.70;17.23;;;1.20;99.90;;;0.93;76.42;100407.09;6306592;22;20179;-75
2023/03/03 09:54:59;;;;;;;36.53;19.13;;;1.20;99.90;;;0.89;76.02;100423.91;6306738;22;20221;-75
2023/03/03 09:57:51;;;;;;;35.27;18.17;;;1.20;99.90;;;0.86;76.35;100413.66;6312988;22;20172;-81
2023/03/03 10:00:54;;;;;;;33.60;17.57;;;1.10;99.90;;;0.87;76.24;100410.28;6312577;22;20178;-80
2023/03/03 10:04:04;;;;;;;38.93;18.73;;;1.20;99.90;;;0.91;76.56;100414.66;6315710;22;20513;-79
2023/03/03 10:06:38;;;;;;;33.27;16.87;;;1.10;99.90;;;0.89;76.67;100410.38;6295055;22;20184;-79
2023/03/03 10:09:46;;;;;;;33.10;17.53;;;1.20;99.90;;;0.88;75.99;100414.53;6314528;22;20159;-83
2023/03/03 10:12:27;;;;;;;35.37;17.70;;;1.20;99.90;;;0.87;76.43;100419.56;6311459;22;20171;-73
2023/03/03 10:15:18;;;;;;;36.37;19.30;;;1.10;99.90;;;0.81;76.41;100412.66;6304312;22;20201;-69
2023/03/03 10:17:52;;;;;;;34.63;17.97;;;1.10;99.90;;;0.80;76.21;100420.19;6305236;22;20169;-71
2023/03/03 10:20:46;;;;;;;36.63;18.17;;;1.10;99.90;;;0.82;76.83;100421.09;6305738;22;20229;-71
2023/03/03 10:23:24;;;;;;;38.33;18.97;;;1.10;99.90;;;0.85;76.72;100414.47;6304803;22;20188;-70
2023/03/03 10:26:14;;;;;;;35.83;18.27;;;1.10;99.90;;;0.89;76.67;100426.44;6305663;22;20229;-71
2023/03/03 10:29:16;;;;;;;37.23;18.93;;;1.10;99.90;;;0.90;76.73;100418.00;6293664;22;20543;-70
2023/03/03 10:32:20;;;;;;;31.93;17.93;;;1.10;99.90;;;0.95;77.25;100416.47;6273195;22;20183;-74
2023/03/03 10:35:18;;;;;;;35.27;18.00;;;1.20;99.90;;;0.96;76.35;100428.38;6265291;22;20339;-71
2023/03/03 10:38:18;;;;;;;32.33;17.00;;;1.20;99.90;;;0.98;77.19;100432.63;6274963;22;20618;-69